sensor_id;sensor_type;location;lat;lon;timestamp;temperature;humidity
37050;DHT22;22958;51.232;6.826;2023-02-05T00:01:57;6.90;99.90
37050;DHT22;22958;51.232;6.826;2023-02-05T00:04:23;6.90;99.90
37050;DHT22;22958;51.232;6.826;2023-02-05T00:06:48;6.90;99.90
37050;DHT22;22958;51.232;6.826;2023-02-05T00:09:15;6.80;99.90
37050;DHT22;22958;51.232;6.826;2023-02-05T00:11:40;6.70;99.90
37050;DHT22;22958;51.232;6.826;2023-02-05T00:14:06;6.70;99.90
37050;DHT22;22958;51.232;6.826;2023-02-05T00:16:33;6.60;99.90
37050;DHT22;22958;51.232;6.826;2023-02-05T00:18:59;6.60;99.90
37050;DHT22;22958;51.232;6.826;2023-02-05T00:21:24;6.60;99.90
37050;DHT22;22958;51.232;6.826;2023-02-05T00:23:50;6.50;99.90
37050;DHT22;22958;51.232;6.826;2023-02-05T00:26:16;6.50;99.90
37050;DHT22;22958;51.232;6.826;2023-02-05T00:28:42;6.60;99.90
37050;DHT22;22958;51.232;6.826;2023-02-05T00:31:18;6.60;99.90
37050;DHT22;22958;51.232;6.826;2023-02-05T00:33:45;6.60;99.90
37050;DHT22;22958;51.232;6.826;2023-02-05T00:36:12;6.70;99.90
37050;DHT22;22958;51.232;6.826;2023-02-05T00:38:37;6.80;99.90
37050;DHT22;22958;51.232;6.826;2023-02-05T00:41:03;6.80;99.90
37050;DHT22;22958;51.232;6.826;2023-02-05T00:43:29;6.80;99.90
37050;DHT22;22958;51.232;6.826;2023-02-05T00:45:54;6.80;99.90
37050;DHT22;22958;51.232;6.826;2023-02-05T00:48:20;6.70;99.90
37050;DHT22;22958;51.232;6.826;2023-02-05T00:50:50;6.80;99.90
37050;DHT22;22958;51.232;6.826;2023-02-05T00:53:16;6.70;99.90
37050;DHT22;22958;51.232;6.826;2023-02-05T00:55:42;6.70;99.90
37050;DHT22;22958;51.232;6.826;2023-02-05T00:58:08;6.70;99.90
37050;DHT22;22958;51.232;6.826;2023-02-05T01:00:33;6.60;99.90
37050;DHT22;22958;51.232;6.826;2023-02-05T01:02:59;6.60;99.90
37050;DHT22;22958;51.232;6.826;2023-02-05T01:05:25;6.60;99.90
37050;DHT22;22958;51.232;6.826;2023-02-05T01:07:51;6.60;99.90
37050;DHT22;22958;51.232;6.826;2023-02-05T01:10:16;6.60;99.90
37050;DHT22;22958;51.232;6.826;2023-02-05T01:12:42;6.60;99.90
37050;DHT22;22958;51.232;6.826;2023-02-05T01:15:11;6.60;99.90
37050;DHT22;22958;51.232;6.826;2023-02-05T01:17:36;6.60;99.90
37050;DHT22;22958;51.232;6.826;2023-02-05T01:20:02;6.70;99.90
37050;DHT22;22958;51.232;6.826;2023-02-05T01:22:28;6.70;99.90
37050;DHT22;22958;51.232;6.826;2023-02-05T01:24:53;6.70;99.90
37050;DHT22;22958;51.232;6.826;2023-02-05T01:27:19;6.60;99.90
37050;DHT22;22958;51.232;6.826;2023-02-05T01:29:44;6.60;99.90
37050;DHT22;22958;51.232;6.826;2023-02-05T01:32:10;6.60;99.90
37050;DHT22;22958;51.232;6.826;2023-02-05T01:34:36;6.60;99.90
37050;DHT22;22958;51.232;6.826;2023-02-05T01:37:01;6.50;99.90
37050;DHT22;22958;51.232;6.826;2023-02-05T01:39:27;6.50;99.90
37050;DHT22;22958;51.232;6.826;2023-02-05T01:41:52;6.60;99.90
37050;DHT22;22958;51.232;6.826;2023-02-05T01:44:21;6.60;99.90
37050;DHT22;22958;51.232;6.826;2023-02-05T01:46:50;6.60;99.90
37050;DHT22;22958;51.232;6.826;2023-02-05T01:49:40;6.60;99.90
37050;DHT22;22958;51.232;6.826;2023-02-05T01:52:13;6.50;99.90
37050;DHT22;22958;51.232;6.826;2023-02-05T01:54:43;6.60;99.90
37050;DHT22;22958;51.232;6.826;2023-02-05T01:57:13;6.60;99.90
37050;DHT22;22958;51.232;6.826;2023-02-05T01:59:43;6.60;99.90
37050;DHT22;22958;51.232;6.826;2023-02-05T02:02:09;6.60;99.90
37050;DHT22;22958;51.232;6.826;2023-02-05T02:04:40;6.50;99.90
37050;DHT22;22958;51.232;6.826;2023-02-05T02:07:09;6.50;99.90
37050;DHT22;22958;51.232;6.826;2023-02-05T02:09:35;6.40;99.90
37050;DHT22;22958;51.232;6.826;2023-02-05T02:12:02;6.40;99.90
37050;DHT22;22958;51.232;6.826;2023-02-05T02:14:30;6.50;99.90
37050;DHT22;22958;51.232;6.826;2023-02-05T02:16:57;6.60;99.90
37050;DHT22;22958;51.232;6.826;2023-02-05T02:19:43;6.60;99.90
37050;DHT22;22958;51.232;6.826;2023-02-05T02:25:31;6.70;99.90
37050;DHT22;22958;51.232;6.826;2023-02-05T02:28:30;6.70;99.90
37050;DHT22;22958;51.232;6.826;2023-02-05T02:31:09;6.80;99.90
37050;DHT22;22958;51.232;6.826;2023-02-05T02:33:53;6.90;99.90
37050;DHT22;22958;51.232;6.826;2023-02-05T02:36:41;6.90;99.90
37050;DHT22;22958;51.232;6.826;2023-02-05T02:39:21;6.90;99.90
37050;DHT22;22958;51.232;6.826;2023-02-05T02:42:07;6.90;99.90
37050;DHT22;22958;51.232;6.826;2023-02-05T02:44:43;6.90;99.90
37050;DHT22;22958;51.232;6.826;2023-02-05T02:47:14;6.90;99.90
37050;DHT22;22958;51.232;6.826;2023-02-05T02:49:46;6.80;99.90
37050;DHT22;22958;51.232;6.826;2023-02-05T02:52:16;6.70;99.90
37050;DHT22;22958;51.232;6.826;2023-02-05T02:54:46;6.70;99.90
37050;DHT22;22958;51.232;6.826;2023-02-05T02:57:15;6.70;99.90
37050;DHT22;22958;51.232;6.826;2023-02-05T02:59:44;6.70;99.90
37050;DHT22;22958;51.232;6.826;2023-02-05T03:02:12;6.70;99.90
37050;DHT22;22958;51.232;6.826;2023-02-05T03:04:43;6.70;99.90
37050;DHT22;22958;51.232;6.826;2023-02-05T03:07:21;6.70;99.90
37050;DHT22;22958;51.232;6.826;2023-02-05T03:12:23;6.70;99.90
37050;DHT22;22958;51.232;6.826;2023-02-05T03:14:50;6.70;99.90
37050;DHT22;22958;51.232;6.826;2023-02-05T03:17:15;6.70;99.90
37050;DHT22;22958;51.232;6.826;2023-02-05T03:19:46;6.70;99.90
37050;DHT22;22958;51.232;6.826;2023-02-05T03:22:12;6.80;99.90
37050;DHT22;22958;51.232;6.826;2023-02-05T03:24:38;6.80;99.90
37050;DHT22;22958;51.232;6.826;2023-02-05T03:27:04;6.80;99.90
37050;DHT22;22958;51.232;6.826;2023-02-05T03:29:34;6.80;99.90
37050;DHT22;22958;51.232;6.826;2023-02-05T03:34:46;6.70;99.90
37050;DHT22;22958;51.232;6.826;2023-02-05T03:37:17;6.70;99.90
37050;DHT22;22958;51.232;6.826;2023-02-05T03:40:10;6.70;99.90
37050;DHT22;22958;51.232;6.826;2023-02-05T03:45:47;6.70;99.90
37050;DHT22;22958;51.232;6.826;2023-02-05T03:48:36;6.80;99.90
37050;DHT22;22958;51.232;6.826;2023-02-05T03:51:38;6.70;99.90
37050;DHT22;22958;51.232;6.826;2023-02-05T03:54:17;6.80;99.90
37050;DHT22;22958;51.232;6.826;2023-02-05T03:57:00;6.80;99.90
37050;DHT22;22958;51.232;6.826;2023-02-05T03:59:29;6.80;99.90
37050;DHT22;22958;51.232;6.826;2023-02-05T04:01:56;6.80;99.90
37050;DHT22;22958;51.232;6.826;2023-02-05T04:04:21;6.80;99.90
37050;DHT22;22958;51.232;6.826;2023-02-05T04:06:48;6.70;99.90
37050;DHT22;22958;51.232;6.826;2023-02-05T04:09:15;6.70;99.90
37050;DHT22;22958;51.232;6.826;2023-02-05T04:11:41;6.80;99.90
37050;DHT22;22958;51.232;6.826;2023-02-05T04:14:06;6.80;99.90
37050;DHT22;22958;51.232;6.826;2023-02-05T04:16:32;6.80;99.90
37050;DHT22;22958;51.232;6.826;2023-02-05T04:18:58;6.90;99.90
37050;DHT22;22958;51.232;6.826;2023-02-05T04:21:23;6.90;99.90
37050;DHT22;22958;51.232;6.826;2023-02-05T04:23:49;6.90;99.90
37050;DHT22;22958;51.232;6.826;2023-02-05T04:26:14;6.90;99.90
37050;DHT22;22958;51.232;6.826;2023-02-05T04:28:40;6.90;99.90
37050;DHT22;22958;51.232;6.826;2023-02-05T04:31:09;7.00;99.90
37050;DHT22;22958;51.232;6.826;2023-02-05T04:33:36;6.90;99.90
37050;DHT22;22958;51.232;6.826;2023-02-05T04:36:02;7.00;99.90
37050;DHT22;22958;51.232;6.826;2023-02-05T04:38:28;7.00;99.90
37050;DHT22;22958;51.232;6.826;2023-02-05T04:40:53;7.10;99.90
37050;DHT22;22958;51.232;6.826;2023-02-05T04:43:19;7.10;99.90
37050;DHT22;22958;51.232;6.826;2023-02-05T04:45:44;7.20;99.90
37050;DHT22;22958;51.232;6.826;2023-02-05T04:48:10;7.30;99.90
37050;DHT22;22958;51.232;6.826;2023-02-05T04:50:37;7.30;99.90
37050;DHT22;22958;51.232;6.826;2023-02-05T04:53:02;7.30;99.90
37050;DHT22;22958;51.232;6.826;2023-02-05T04:55:29;7.30;99.90
37050;DHT22;22958;51.232;6.826;2023-02-05T04:57:55;7.30;99.90
37050;DHT22;22958;51.232;6.826;2023-02-05T05:00:21;7.40;99.90
37050;DHT22;22958;51.232;6.826;2023-02-05T05:02:46;7.40;99.90
37050;DHT22;22958;51.232;6.826;2023-02-05T05:05:12;7.30;99.90
37050;DHT22;22958;51.232;6.826;2023-02-05T05:07:37;7.30;99.90
37050;DHT22;22958;51.232;6.826;2023-02-05T05:10:04;7.30;99.90
37050;DHT22;22958;51.232;6.826;2023-02-05T05:12:32;7.30;99.90
37050;DHT22;22958;51.232;6.826;2023-02-05T05:14:57;7.30;99.90
37050;DHT22;22958;51.232;6.826;2023-02-05T05:17:23;7.30;99.90
37050;DHT22;22958;51.232;6.826;2023-02-05T05:19:48;7.40;99.90
37050;DHT22;22958;51.232;6.826;2023-02-05T05:22:14;7.40;99.90
37050;DHT22;22958;51.232;6.826;2023-02-05T05:24:39;7.40;99.90
37050;DHT22;22958;51.232;6.826;2023-02-05T05:27:04;7.40;99.90
37050;DHT22;22958;51.232;6.826;2023-02-05T05:29:30;7.40;99.90
37050;DHT22;22958;51.232;6.826;2023-02-05T05:31:56;7.40;99.90
37050;DHT22;22958;51.232;6.826;2023-02-05T05:34:21;7.40;99.90
37050;DHT22;22958;51.232;6.826;2023-02-05T05:36:47;7.40;99.90
37050;DHT22;22958;51.232;6.826;2023-02-05T05:39:13;7.40;99.90
37050;DHT22;22958;51.232;6.826;2023-02-05T05:41:57;7.40;99.90
37050;DHT22;22958;51.232;6.826;2023-02-05T05:44:41;7.50;99.90
37050;DHT22;22958;51.232;6.826;2023-02-05T05:47:07;7.50;99.90
37050;DHT22;22958;51.232;6.826;2023-02-05T05:49:33;7.50;99.90
37050;DHT22;22958;51.232;6.826;2023-02-05T05:51:58;7.50;99.90
37050;DHT22;22958;51.232;6.826;2023-02-05T05:54:24;7.50;99.90
37050;DHT22;22958;51.232;6.826;2023-02-05T05:56:49;7.50;99.90
37050;DHT22;22958;51.232;6.826;2023-02-05T05:59:15;7.50;99.90
37050;DHT22;22958;51.232;6.826;2023-02-05T06:01:40;7.50;99.90
37050;DHT22;22958;51.232;6.826;2023-02-05T06:04:06;7.50;99.90
37050;DHT22;22958;51.232;6.826;2023-02-05T06:06:31;7.50;99.90
37050;DHT22;22958;51.232;6.826;2023-02-05T06:08:57;7.50;99.90
37050;DHT22;22958;51.232;6.826;2023-02-05T06:11:23;7.50;99.90
37050;DHT22;22958;51.232;6.826;2023-02-05T06:13:48;7.50;99.90
37050;DHT22;22958;51.232;6.826;2023-02-05T06:16:14;7.50;99.90
37050;DHT22;22958;51.232;6.826;2023-02-05T06:18:39;7.60;99.90
37050;DHT22;22958;51.232;6.826;2023-02-05T06:21:05;7.50;99.90
37050;DHT22;22958;51.232;6.826;2023-02-05T06:23:31;7.60;99.90
37050;DHT22;22958;51.232;6.826;2023-02-05T06:25:57;7.70;99.90
37050;DHT22;22958;51.232;6.826;2023-02-05T06:28:23;7.60;99.90
37050;DHT22;22958;51.232;6.826;2023-02-05T06:30:48;7.60;99.90
37050;DHT22;22958;51.232;6.826;2023-02-05T06:33:14;7.60;99.90
37050;DHT22;22958;51.232;6.826;2023-02-05T06:35:40;7.50;99.90
37050;DHT22;22958;51.232;6.826;2023-02-05T06:38:06;7.50;99.90
37050;DHT22;22958;51.232;6.826;2023-02-05T06:40:32;7.60;99.90
37050;DHT22;22958;51.232;6.826;2023-02-05T06:42:57;7.50;99.90
37050;DHT22;22958;51.232;6.826;2023-02-05T06:45:23;7.50;99.90
37050;DHT22;22958;51.232;6.826;2023-02-05T06:47:48;7.60;99.90
37050;DHT22;22958;51.232;6.826;2023-02-05T06:50:14;7.60;99.90
37050;DHT22;22958;51.232;6.826;2023-02-05T06:52:40;7.50;99.90
37050;DHT22;22958;51.232;6.826;2023-02-05T06:55:06;7.50;99.90
37050;DHT22;22958;51.232;6.826;2023-02-05T06:57:31;7.50;99.90
37050;DHT22;22958;51.232;6.826;2023-02-05T06:59:57;7.50;99.90
37050;DHT22;22958;51.232;6.826;2023-02-05T07:02:23;7.40;99.90
37050;DHT22;22958;51.232;6.826;2023-02-05T07:04:49;7.50;99.90
37050;DHT22;22958;51.232;6.826;2023-02-05T07:07:14;7.40;99.90
37050;DHT22;22958;51.232;6.826;2023-02-05T07:09:41;7.50;99.90
37050;DHT22;22958;51.232;6.826;2023-02-05T07:12:07;7.40;99.90
37050;DHT22;22958;51.232;6.826;2023-02-05T07:14:39;7.40;99.90
37050;DHT22;22958;51.232;6.826;2023-02-05T07:17:05;7.40;99.90
37050;DHT22;22958;51.232;6.826;2023-02-05T07:19:32;7.30;99.90
37050;DHT22;22958;51.232;6.826;2023-02-05T07:21:57;7.40;99.90
37050;DHT22;22958;51.232;6.826;2023-02-05T07:24:23;7.30;99.90
37050;DHT22;22958;51.232;6.826;2023-02-05T07:26:48;7.30;99.90
37050;DHT22;22958;51.232;6.826;2023-02-05T07:29:14;7.30;99.90
37050;DHT22;22958;51.232;6.826;2023-02-05T07:31:39;7.30;99.90
37050;DHT22;22958;51.232;6.826;2023-02-05T07:34:05;7.30;99.90
37050;DHT22;22958;51.232;6.826;2023-02-05T07:36:30;7.30;99.90
37050;DHT22;22958;51.232;6.826;2023-02-05T07:38:56;7.30;99.90
37050;DHT22;22958;51.232;6.826;2023-02-05T07:41:22;7.30;99.90
37050;DHT22;22958;51.232;6.826;2023-02-05T07:43:51;7.30;99.90
37050;DHT22;22958;51.232;6.826;2023-02-05T07:46:17;7.20;99.90
37050;DHT22;22958;51.232;6.826;2023-02-05T07:48:43;7.20;99.90
37050;DHT22;22958;51.232;6.826;2023-02-05T07:51:14;7.20;99.90
37050;DHT22;22958;51.232;6.826;2023-02-05T07:53:40;7.20;99.90
37050;DHT22;22958;51.232;6.826;2023-02-05T07:56:06;7.20;99.90
37050;DHT22;22958;51.232;6.826;2023-02-05T07:58:31;7.20;99.90
37050;DHT22;22958;51.232;6.826;2023-02-05T08:01:00;7.20;99.90
37050;DHT22;22958;51.232;6.826;2023-02-05T08:03:26;7.20;99.90
37050;DHT22;22958;51.232;6.826;2023-02-05T08:05:52;7.20;99.90
37050;DHT22;22958;51.232;6.826;2023-02-05T08:08:18;7.20;99.90
37050;DHT22;22958;51.232;6.826;2023-02-05T08:10:43;7.20;99.90
37050;DHT22;22958;51.232;6.826;2023-02-05T08:13:08;7.20;99.90
37050;DHT22;22958;51.232;6.826;2023-02-05T08:15:37;7.20;99.90
37050;DHT22;22958;51.232;6.826;2023-02-05T08:18:03;7.20;99.90
37050;DHT22;22958;51.232;6.826;2023-02-05T08:20:28;7.20;99.90
37050;DHT22;22958;51.232;6.826;2023-02-05T08:22:54;7.20;99.90
37050;DHT22;22958;51.232;6.826;2023-02-05T08:25:19;7.20;99.90
37050;DHT22;22958;51.232;6.826;2023-02-05T08:27:45;7.10;99.90
37050;DHT22;22958;51.232;6.826;2023-02-05T08:30:13;7.10;99.90
37050;DHT22;22958;51.232;6.826;2023-02-05T08:32:39;7.10;99.90
37050;DHT22;22958;51.232;6.826;2023-02-05T08:35:05;7.10;99.90
37050;DHT22;22958;51.232;6.826;2023-02-05T08:37:31;7.10;99.90
37050;DHT22;22958;51.232;6.826;2023-02-05T08:39:56;7.10;99.90
37050;DHT22;22958;51.232;6.826;2023-02-05T08:42:22;7.00;99.90
37050;DHT22;22958;51.232;6.826;2023-02-05T08:44:49;6.90;99.90
37050;DHT22;22958;51.232;6.826;2023-02-05T08:47:18;6.90;99.90
37050;DHT22;22958;51.232;6.826;2023-02-05T08:49:44;6.80;99.90
37050;DHT22;22958;51.232;6.826;2023-02-05T08:52:09;6.80;99.90
37050;DHT22;22958;51.232;6.826;2023-02-05T08:54:35;6.70;99.90
37050;DHT22;22958;51.232;6.826;2023-02-05T08:57:00;6.70;99.90
37050;DHT22;22958;51.232;6.826;2023-02-05T08:59:26;6.70;99.90
37050;DHT22;22958;51.232;6.826;2023-02-05T09:01:52;6.70;99.90
37050;DHT22;22958;51.232;6.826;2023-02-05T09:04:19;6.70;99.90
37050;DHT22;22958;51.232;6.826;2023-02-05T09:06:45;6.60;99.90
37050;DHT22;22958;51.232;6.826;2023-02-05T09:09:11;6.60;99.90
37050;DHT22;22958;51.232;6.826;2023-02-05T09:11:37;6.60;99.90
37050;DHT22;22958;51.232;6.826;2023-02-05T09:14:03;6.50;99.90
37050;DHT22;22958;51.232;6.826;2023-02-05T09:16:29;6.50;99.90
37050;DHT22;22958;51.232;6.826;2023-02-05T09:18:55;6.50;99.90
37050;DHT22;22958;51.232;6.826;2023-02-05T09:21:21;6.60;99.90
37050;DHT22;22958;51.232;6.826;2023-02-05T09:23:47;6.60;99.90
37050;DHT22;22958;51.232;6.826;2023-02-05T09:26:12;6.60;99.90
37050;DHT22;22958;51.232;6.826;2023-02-05T09:28:38;6.60;99.90
37050;DHT22;22958;51.232;6.826;2023-02-05T09:31:12;6.70;99.90
37050;DHT22;22958;51.232;6.826;2023-02-05T09:33:37;6.70;99.90
37050;DHT22;22958;51.232;6.826;2023-02-05T09:38:31;6.70;99.90
37050;DHT22;22958;51.232;6.826;2023-02-05T09:41:13;6.70;99.90
37050;DHT22;22958;51.232;6.826;2023-02-05T09:44:07;6.70;99.90
37050;DHT22;22958;51.232;6.826;2023-02-05T09:46:43;6.60;99.90
37050;DHT22;22958;51.232;6.826;2023-02-05T09:51:42;6.70;99.90
37050;DHT22;22958;51.232;6.826;2023-02-05T09:54:16;6.70;99.90
37050;DHT22;22958;51.232;6.826;2023-02-05T09:56:43;6.70;99.90
37050;DHT22;22958;51.232;6.826;2023-02-05T09:59:21;6.70;99.90
37050;DHT22;22958;51.232;6.826;2023-02-05T10:01:57;6.70;99.90
37050;DHT22;22958;51.232;6.826;2023-02-05T10:04:23;6.70;99.90
37050;DHT22;22958;51.232;6.826;2023-02-05T10:07:24;6.70;99.90
37050;DHT22;22958;51.232;6.826;2023-02-05T10:10:02;6.70;99.90
37050;DHT22;22958;51.232;6.826;2023-02-05T10:12:50;6.60;99.90
37050;DHT22;22958;51.232;6.826;2023-02-05T10:15:46;6.60;99.90
37050;DHT22;22958;51.232;6.826;2023-02-05T10:23:55;6.80;99.90
37050;DHT22;22958;51.232;6.826;2023-02-05T10:26:33;6.80;99.90
37050;DHT22;22958;51.232;6.826;2023-02-05T10:29:14;6.70;99.90
37050;DHT22;22958;51.232;6.826;2023-02-05T10:37:03;6.70;99.90
37050;DHT22;22958;51.232;6.826;2023-02-05T10:39:30;6.70;99.90
37050;DHT22;22958;51.232;6.826;2023-02-05T10:42:03;6.70;99.90
37050;DHT22;22958;51.232;6.826;2023-02-05T10:44:39;6.80;99.90
37050;DHT22;22958;51.232;6.826;2023-02-05T10:50:07;6.90;99.90
37050;DHT22;22958;51.232;6.826;2023-02-05T10:52:38;6.90;99.90
37050;DHT22;22958;51.232;6.826;2023-02-05T10:55:04;6.90;99.90
37050;DHT22;22958;51.232;6.826;2023-02-05T10:57:32;6.90;99.90
37050;DHT22;22958;51.232;6.826;2023-02-05T11:00:03;6.90;99.90
37050;DHT22;22958;51.232;6.826;2023-02-05T11:02:37;6.90;99.90
37050;DHT22;22958;51.232;6.826;2023-02-05T11:05:13;6.90;99.90
37050;DHT22;22958;51.232;6.826;2023-02-05T11:07:44;6.80;99.90
37050;DHT22;22958;51.232;6.826;2023-02-05T11:12:56;6.80;99.90
37050;DHT22;22958;51.232;6.826;2023-02-05T11:15:29;6.80;99.90
37050;DHT22;22958;51.232;6.826;2023-02-05T11:18:04;6.80;99.90
37050;DHT22;22958;51.232;6.826;2023-02-05T11:20:36;6.80;99.90
37050;DHT22;22958;51.232;6.826;2023-02-05T11:23:17;6.80;99.90
37050;DHT22;22958;51.232;6.826;2023-02-05T11:26:07;6.80;99.90
37050;DHT22;22958;51.232;6.826;2023-02-05T11:28:35;6.80;99.90
37050;DHT22;22958;51.232;6.826;2023-02-05T11:31:36;6.80;99.90
37050;DHT22;22958;51.232;6.826;2023-02-05T11:34:14;6.80;99.90
37050;DHT22;22958;51.232;6.826;2023-02-05T11:37:09;6.80;99.90
37050;DHT22;22958;51.232;6.826;2023-02-05T11:39:41;6.80;99.90
37050;DHT22;22958;51.232;6.826;2023-02-05T11:42:14;6.80;99.90
37050;DHT22;22958;51.232;6.826;2023-02-05T11:44:49;6.70;99.90
37050;DHT22;22958;51.232;6.826;2023-02-05T11:47:26;6.70;99.90
37050;DHT22;22958;51.232;6.826;2023-02-05T11:49:52;6.70;99.90
37050;DHT22;22958;51.232;6.826;2023-02-05T11:52:25;6.70;99.90
37050;DHT22;22958;51.232;6.826;2023-02-05T11:54:51;6.80;99.90
37050;DHT22;22958;51.232;6.826;2023-02-05T11:59:59;6.80;99.90
37050;DHT22;22958;51.232;6.826;2023-02-05T12:08:05;6.80;99.90
37050;DHT22;22958;51.232;6.826;2023-02-05T12:13:59;6.80;99.90
37050;DHT22;22958;51.232;6.826;2023-02-05T12:19:24;6.80;99.90
37050;DHT22;22958;51.232;6.826;2023-02-05T12:26:58;6.90;99.90
37050;DHT22;22958;51.232;6.826;2023-02-05T12:40:27;7.10;99.90
37050;DHT22;22958;51.232;6.826;2023-02-05T12:43:23;7.10;99.90
37050;DHT22;22958;51.232;6.826;2023-02-05T12:57:15;7.10;99.90
37050;DHT22;22958;51.232;6.826;2023-02-05T13:00:01;7.10;99.90
37050;DHT22;22958;51.232;6.826;2023-02-05T13:02:34;7.10;99.90
37050;DHT22;22958;51.232;6.826;2023-02-05T13:05:19;7.10;99.90
37050;DHT22;22958;51.232;6.826;2023-02-05T13:10:28;7.10;99.90
37050;DHT22;22958;51.232;6.826;2023-02-05T13:13:01;7.10;99.90
37050;DHT22;22958;51.232;6.826;2023-02-05T13:15:38;7.10;99.90
37050;DHT22;22958;51.232;6.826;2023-02-05T13:20:42;7.10;99.90
37050;DHT22;22958;51.232;6.826;2023-02-05T13:23:27;7.10;99.90
37050;DHT22;22958;51.232;6.826;2023-02-05T13:26:15;7.10;99.90
37050;DHT22;22958;51.232;6.826;2023-02-05T13:28:53;7.10;99.90
37050;DHT22;22958;51.232;6.826;2023-02-05T13:33:49;7.10;99.90
37050;DHT22;22958;51.232;6.826;2023-02-05T13:39:16;7.20;99.90
37050;DHT22;22958;51.232;6.826;2023-02-05T13:53:02;7.30;99.90
37050;DHT22;22958;51.232;6.826;2023-02-05T14:01:13;7.30;99.90
37050;DHT22;22958;51.232;6.826;2023-02-05T14:03:56;7.30;99.90
37050;DHT22;22958;51.232;6.826;2023-02-05T14:06:31;7.40;99.90
37050;DHT22;22958;51.232;6.826;2023-02-05T14:09:03;7.40;99.90
37050;DHT22;22958;51.232;6.826;2023-02-05T14:12:03;7.50;99.90
37050;DHT22;22958;51.232;6.826;2023-02-05T14:14:33;7.60;99.90
37050;DHT22;22958;51.232;6.826;2023-02-05T14:19:54;7.60;99.90
37050;DHT22;22958;51.232;6.826;2023-02-05T14:22:39;7.60;99.90
37050;DHT22;22958;51.232;6.826;2023-02-05T14:30:55;7.50;99.90
37050;DHT22;22958;51.232;6.826;2023-02-05T14:33:45;7.50;99.90
37050;DHT22;22958;51.232;6.826;2023-02-05T14:39:04;7.40;99.90
37050;DHT22;22958;51.232;6.826;2023-02-05T14:46:51;7.40;99.90
37050;DHT22;22958;51.232;6.826;2023-02-05T14:49:22;7.40;99.90
37050;DHT22;22958;51.232;6.826;2023-02-05T14:51:52;7.50;99.90
37050;DHT22;22958;51.232;6.826;2023-02-05T14:54:24;7.40;99.90
37050;DHT22;22958;51.232;6.826;2023-02-05T14:57:38;7.40;99.90
37050;DHT22;22958;51.232;6.826;2023-02-05T15:03:06;7.50;99.90
37050;DHT22;22958;51.232;6.826;2023-02-05T15:08:23;7.50;99.90
37050;DHT22;22958;51.232;6.826;2023-02-05T15:10:56;7.40;99.90
37050;DHT22;22958;51.232;6.826;2023-02-05T15:13:23;7.40;99.90
37050;DHT22;22958;51.232;6.826;2023-02-05T15:18:48;7.40;99.90
37050;DHT22;22958;51.232;6.826;2023-02-05T15:21:37;7.30;99.90
37050;DHT22;22958;51.232;6.826;2023-02-05T15:24:21;7.40;99.90
37050;DHT22;22958;51.232;6.826;2023-02-05T15:27:02;7.50;99.90
37050;DHT22;22958;51.232;6.826;2023-02-05T15:29:40;7.80;99.90
37050;DHT22;22958;51.232;6.826;2023-02-05T15:32:15;8.20;99.90
37050;DHT22;22958;51.232;6.826;2023-02-05T15:37:37;9.40;99.90
37050;DHT22;22958;51.232;6.826;2023-02-05T15:40:15;9.20;99.90
37050;DHT22;22958;51.232;6.826;2023-02-05T15:42:44;8.60;99.90
37050;DHT22;22958;51.232;6.826;2023-02-05T15:45:21;8.30;99.90
37050;DHT22;22958;51.232;6.826;2023-02-05T15:50:43;7.70;99.90
37050;DHT22;22958;51.232;6.826;2023-02-05T15:56:07;7.50;99.90
37050;DHT22;22958;51.232;6.826;2023-02-05T15:58:35;7.40;99.90
37050;DHT22;22958;51.232;6.826;2023-02-05T16:01:00;7.40;99.90
37050;DHT22;22958;51.232;6.826;2023-02-05T16:03:35;7.40;99.90
37050;DHT22;22958;51.232;6.826;2023-02-05T16:06:01;7.40;99.90
37050;DHT22;22958;51.232;6.826;2023-02-05T16:08:26;7.40;99.90
37050;DHT22;22958;51.232;6.826;2023-02-05T16:10:55;7.30;99.90
37050;DHT22;22958;51.232;6.826;2023-02-05T16:13:23;7.20;99.90
37050;DHT22;22958;51.232;6.826;2023-02-05T16:15:56;7.20;99.90
37050;DHT22;22958;51.232;6.826;2023-02-05T16:18:36;7.20;99.90
37050;DHT22;22958;51.232;6.826;2023-02-05T16:24:00;7.20;99.90
37050;DHT22;22958;51.232;6.826;2023-02-05T16:26:39;7.30;99.90
37050;DHT22;22958;51.232;6.826;2023-02-05T16:29:06;7.20;99.90
37050;DHT22;22958;51.232;6.826;2023-02-05T16:31:37;7.10;99.90
37050;DHT22;22958;51.232;6.826;2023-02-05T16:34:12;7.10;99.90
37050;DHT22;22958;51.232;6.826;2023-02-05T16:36:42;7.20;99.90
37050;DHT22;22958;51.232;6.826;2023-02-05T16:39:22;7.20;99.90
37050;DHT22;22958;51.232;6.826;2023-02-05T16:42:01;7.10;99.90
37050;DHT22;22958;51.232;6.826;2023-02-05T16:44:38;7.20;99.90
37050;DHT22;22958;51.232;6.826;2023-02-05T16:47:18;7.10;99.90
37050;DHT22;22958;51.232;6.826;2023-02-05T16:49:45;7.10;99.90
37050;DHT22;22958;51.232;6.826;2023-02-05T16:52:26;7.10;99.90
37050;DHT22;22958;51.232;6.826;2023-02-05T16:54:52;7.20;99.90
37050;DHT22;22958;51.232;6.826;2023-02-05T16:57:29;7.20;99.90
37050;DHT22;22958;51.232;6.826;2023-02-05T17:00:00;7.20;99.90
37050;DHT22;22958;51.232;6.826;2023-02-05T17:02:39;7.20;99.90
37050;DHT22;22958;51.232;6.826;2023-02-05T17:05:08;7.20;99.90
37050;DHT22;22958;51.232;6.826;2023-02-05T17:07:55;7.20;99.90
37050;DHT22;22958;51.232;6.826;2023-02-05T17:10:22;7.10;99.90
37050;DHT22;22958;51.232;6.826;2023-02-05T17:12:58;7.20;99.90
37050;DHT22;22958;51.232;6.826;2023-02-05T17:15:32;7.10;99.90
37050;DHT22;22958;51.232;6.826;2023-02-05T17:18:00;7.10;99.90
37050;DHT22;22958;51.232;6.826;2023-02-05T17:20:34;7.10;99.90
37050;DHT22;22958;51.232;6.826;2023-02-05T17:25:26;7.10;99.90
37050;DHT22;22958;51.232;6.826;2023-02-05T17:27:53;7.00;99.90
37050;DHT22;22958;51.232;6.826;2023-02-05T17:30:19;7.10;99.90
37050;DHT22;22958;51.232;6.826;2023-02-05T17:32:45;7.10;99.90
37050;DHT22;22958;51.232;6.826;2023-02-05T17:35:15;7.00;99.90
37050;DHT22;22958;51.232;6.826;2023-02-05T17:37:41;7.00;99.90
37050;DHT22;22958;51.232;6.826;2023-02-05T17:40:07;7.00;99.90
37050;DHT22;22958;51.232;6.826;2023-02-05T17:42:32;7.10;99.90
37050;DHT22;22958;51.232;6.826;2023-02-05T17:44:58;7.10;99.90
37050;DHT22;22958;51.232;6.826;2023-02-05T17:47:23;7.10;99.90
37050;DHT22;22958;51.232;6.826;2023-02-05T17:49:49;7.10;99.90
37050;DHT22;22958;51.232;6.826;2023-02-05T17:52:14;7.10;99.90
37050;DHT22;22958;51.232;6.826;2023-02-05T17:54:40;7.10;99.90
37050;DHT22;22958;51.232;6.826;2023-02-05T17:57:18;7.10;99.90
37050;DHT22;22958;51.232;6.826;2023-02-05T17:59:44;7.00;99.90
37050;DHT22;22958;51.232;6.826;2023-02-05T18:02:11;7.10;99.90
37050;DHT22;22958;51.232;6.826;2023-02-05T18:04:37;7.10;99.90
37050;DHT22;22958;51.232;6.826;2023-02-05T18:07:02;7.00;99.90
37050;DHT22;22958;51.232;6.826;2023-02-05T18:09:28;7.00;99.90
37050;DHT22;22958;51.232;6.826;2023-02-05T18:11:54;7.00;99.90
37050;DHT22;22958;51.232;6.826;2023-02-05T18:14:19;7.10;99.90
37050;DHT22;22958;51.232;6.826;2023-02-05T18:16:46;7.10;99.90
37050;DHT22;22958;51.232;6.826;2023-02-05T18:19:11;7.10;99.90
37050;DHT22;22958;51.232;6.826;2023-02-05T18:21:38;7.10;99.90
37050;DHT22;22958;51.232;6.826;2023-02-05T18:24:03;7.20;99.90
37050;DHT22;22958;51.232;6.826;2023-02-05T18:26:29;7.10;99.90